createdAt,value
2023-04-07T00:01:26.513Z,10.37
2023-04-07T00:09:50.579Z,10.38
2023-04-07T00:14:05.829Z,10.38
2023-04-07T00:22:16.013Z,10.40
2023-04-07T00:26:02.226Z,10.42
2023-04-07T00:29:37.037Z,10.43
2023-04-07T00:33:16.272Z,10.43
2023-04-07T00:36:52.370Z,10.44
2023-04-07T00:44:35.939Z,10.46
2023-04-07T00:48:16.319Z,10.47
2023-04-07T00:52:42.468Z,10.48
2023-04-07T00:56:07.009Z,10.50
2023-04-07T00:59:42.981Z,10.50
2023-04-07T01:03:48.879Z,10.52
2023-04-07T01:07:41.489Z,10.53
2023-04-07T01:11:45.330Z,10.54
2023-04-07T01:15:28.331Z,10.55
2023-04-07T01:23:05.536Z,10.55
2023-04-07T01:30:38.019Z,10.56
2023-04-07T01:35:21.013Z,10.57
2023-04-07T01:38:48.952Z,10.58
2023-04-07T01:42:12.740Z,10.60
2023-04-07T01:45:46.493Z,10.60
2023-04-07T01:49:11.859Z,10.62
2023-04-07T01:52:55.184Z,10.63
2023-04-07T01:56:34.370Z,10.64
2023-04-07T02:00:51.983Z,10.66
2023-04-07T02:04:33.839Z,10.68
2023-04-07T02:08:07.119Z,10.69
2023-04-07T02:11:32.922Z,10.69
2023-04-07T02:15:21.656Z,10.70
2023-04-07T02:18:47.721Z,10.70
2023-04-07T02:22:09.334Z,10.70
2023-04-07T02:29:14.990Z,10.73
2023-04-07T02:36:35.957Z,10.76
2023-04-07T02:39:57.528Z,10.78
2023-04-07T02:44:10.387Z,10.79
2023-04-07T02:52:21.054Z,10.81
2023-04-07T02:56:02.158Z,10.82
2023-04-07T03:03:47.850Z,10.84
2023-04-07T03:07:33.632Z,10.86
2023-04-07T03:11:08.193Z,10.87
2023-04-07T03:14:38.763Z,10.87
2023-04-07T03:18:08.146Z,10.88
2023-04-07T03:21:31.822Z,10.89
2023-04-07T03:24:53.471Z,10.90
2023-04-07T03:28:48.689Z,10.92
2023-04-07T03:32:11.221Z,10.93
2023-04-07T03:35:46.405Z,10.93
2023-04-07T03:39:08.142Z,10.95
2023-04-07T03:42:39.457Z,10.96
2023-04-07T03:46:32.468Z,10.98
2023-04-07T03:58:41.074Z,11.01
2023-04-07T04:02:21.429Z,11.02
2023-04-07T04:05:45.770Z,11.03
2023-04-07T04:09:13.411Z,11.04
2023-04-07T04:12:49.187Z,11.05
2023-04-07T04:16:33.180Z,11.06
2023-04-07T04:20:59.049Z,11.07
2023-04-07T04:24:38.380Z,11.09
2023-04-07T04:28:14.575Z,11.10
2023-04-07T04:31:59.705Z,11.12
2023-04-07T04:35:22.622Z,11.13
2023-04-07T04:38:56.523Z,11.14
2023-04-07T04:42:28.168Z,11.16
2023-04-07T04:46:02.507Z,11.17
2023-04-07T04:49:28.960Z,11.18
2023-04-07T04:52:56.893Z,11.19
2023-04-07T04:56:28.412Z,11.20
2023-04-07T05:00:41.880Z,11.21
2023-04-07T05:04:03.969Z,11.22
2023-04-07T05:07:26.035Z,11.24
2023-04-07T05:10:47.858Z,11.25
2023-04-07T05:14:17.134Z,11.27
2023-04-07T05:17:44.301Z,11.29
2023-04-07T05:21:06.500Z,11.30
2023-04-07T05:24:29.978Z,11.31
2023-04-07T05:28:08.534Z,11.33
2023-04-07T05:31:43.743Z,11.35
2023-04-07T05:35:07.463Z,11.37
2023-04-07T05:38:33.694Z,11.40
2023-04-07T05:42:26.853Z,11.43
2023-04-07T05:45:58.653Z,11.47
2023-04-07T05:49:25.470Z,11.49
2023-04-07T05:52:58.804Z,11.52
2023-04-07T06:00:19.007Z,11.61
2023-04-07T06:03:47.814Z,11.65
2023-04-07T06:07:13.802Z,11.68
2023-04-07T06:10:38.202Z,11.72
2023-04-07T06:14:00.533Z,11.74
2023-04-07T06:17:30.035Z,11.76
2023-04-07T06:20:54.518Z,11.79
2023-04-07T06:24:16.455Z,11.82
2023-04-07T06:27:45.167Z,11.85
2023-04-07T06:31:21.398Z,11.89
2023-04-07T06:34:45.942Z,11.92
2023-04-07T06:38:29.213Z,11.99
2023-04-07T06:42:02.475Z,12.08
2023-04-07T06:49:27.282Z,12.23
2023-04-07T06:52:48.917Z,12.29
2023-04-07T06:56:21.708Z,12.34
2023-04-07T06:59:45.673Z,12.41
2023-04-07T07:07:09.578Z,12.56
2023-04-07T07:14:07.706Z,12.68
2023-04-07T07:17:30.225Z,12.72
2023-04-07T07:20:53.068Z,12.74
2023-04-07T07:24:25.473Z,12.79
2023-04-07T07:27:49.319Z,12.83
2023-04-07T07:31:18.921Z,12.88
2023-04-07T07:34:40.949Z,12.94
2023-04-07T07:38:14.831Z,13.00
2023-04-07T07:41:38.465Z,13.08
2023-04-07T07:45:07.858Z,13.13
2023-04-07T07:48:34.738Z,13.20
2023-04-07T07:51:56.347Z,13.25
2023-04-07T07:55:17.942Z,13.30
2023-04-07T08:06:22.650Z,13.38
2023-04-07T08:10:04.370Z,13.42
2023-04-07T08:13:26.773Z,13.50
2023-04-07T08:21:13.494Z,13.79
2023-04-07T08:24:43.157Z,13.91
2023-04-07T08:28:06.339Z,14.08
2023-04-07T08:31:27.937Z,14.31
2023-04-07T08:34:49.663Z,14.53
2023-04-07T08:38:13.806Z,14.71
2023-04-07T08:41:42.938Z,14.87
2023-04-07T08:45:06.369Z,14.93
2023-04-07T08:57:12.191Z,15.04
2023-04-07T09:04:19.479Z,15.14
2023-04-07T09:07:44.425Z,15.20
2023-04-07T09:11:15.588Z,15.26
2023-04-07T09:15:05.568Z,15.29
2023-04-07T09:18:30.444Z,15.31
2023-04-07T09:21:53.048Z,15.35
2023-04-07T09:25:26.408Z,15.39
2023-04-07T09:29:07.597Z,15.39
2023-04-07T09:32:44.029Z,15.38
2023-04-07T09:36:13.336Z,15.37
2023-04-07T09:39:49.183Z,15.37
2023-04-07T09:43:17.890Z,15.37
2023-04-07T09:46:54.337Z,15.36
2023-04-07T09:50:16.022Z,15.34
2023-04-07T09:53:56.901Z,15.35
2023-04-07T09:57:24.694Z,15.37
2023-04-07T10:00:49.788Z,15.37
2023-04-07T10:04:17.649Z,15.41
2023-04-07T10:07:47.532Z,15.47
2023-04-07T10:11:16.593Z,15.51
2023-04-07T10:14:50.748Z,15.57
2023-04-07T10:18:14.440Z,15.66
2023-04-07T10:21:49.238Z,15.84
2023-04-07T10:25:23.896Z,15.90
2023-04-07T10:28:51.403Z,15.97
2023-04-07T10:36:14.027Z,15.98
2023-04-07T10:43:43.941Z,16.88
2023-04-07T10:47:07.134Z,17.15
2023-04-07T10:50:29.708Z,17.33
2023-04-07T10:54:22.938Z,17.49
2023-04-07T11:01:42.622Z,17.81
2023-04-07T11:05:17.731Z,17.90
2023-04-07T11:08:50.033Z,18.00
2023-04-07T11:12:27.709Z,18.10
2023-04-07T11:23:28.639Z,18.68
2023-04-07T11:26:50.742Z,18.75
2023-04-07T11:30:13.472Z,18.84
2023-04-07T11:33:44.537Z,18.95
2023-04-07T11:37:25.191Z,18.98
2023-04-07T11:40:49.188Z,18.90
2023-04-07T11:44:21.266Z,18.82
2023-04-07T11:47:47.310Z,18.66
2023-04-07T11:51:42.876Z,18.50
2023-04-07T11:55:04.820Z,18.39
2023-04-07T11:58:32.913Z,18.38
2023-04-07T12:02:16.299Z,18.36
2023-04-07T12:05:48.161Z,18.29
2023-04-07T12:09:27.312Z,18.05
2023-04-07T12:13:02.424Z,17.75
2023-04-07T12:16:53.801Z,17.73
2023-04-07T12:25:00.189Z,17.76
2023-04-07T12:41:43.534Z,17.93
2023-04-07T12:54:59.442Z,17.79
2023-04-07T13:02:31.890Z,17.90
2023-04-07T13:10:10.646Z,17.60
2023-04-07T13:13:53.210Z,17.40
2023-04-07T13:17:18.635Z,17.20
2023-04-07T13:21:22.136Z,17.08
2023-04-07T13:24:40.923Z,16.98
2023-04-07T13:28:07.925Z,16.91
2023-04-07T13:31:36.634Z,16.89
2023-04-07T13:35:02.427Z,16.86
2023-04-07T13:38:32.364Z,16.81
2023-04-07T13:42:17.597Z,16.70
2023-04-07T13:45:42.238Z,16.59
2023-04-07T13:49:12.929Z,16.54
2023-04-07T13:52:41.987Z,16.54
2023-04-07T13:56:17.787Z,16.62
2023-04-07T13:59:39.342Z,16.77
2023-04-07T14:07:14.069Z,17.35
2023-04-07T14:10:38.255Z,17.60
2023-04-07T14:14:21.743Z,17.85
2023-04-07T14:17:43.389Z,18.05
2023-04-07T14:21:07.271Z,18.12
2023-04-07T14:24:28.894Z,18.16
2023-04-07T14:28:14.828Z,18.18
2023-04-07T14:31:39.076Z,18.08
2023-04-07T14:35:05.040Z,18.00
2023-04-07T14:38:34.064Z,17.86
2023-04-07T14:42:04.408Z,17.61
2023-04-07T14:45:26.049Z,17.44
2023-04-07T14:48:47.640Z,17.27
2023-04-07T14:52:14.958Z,17.07
2023-04-07T14:55:37.080Z,16.96
2023-04-07T14:58:58.670Z,16.89
2023-04-07T15:02:33.359Z,16.79
2023-04-07T15:05:59.979Z,16.71
2023-04-07T15:09:28.273Z,16.59
2023-04-07T15:12:50.409Z,16.46
2023-04-07T15:16:18.306Z,16.39
2023-04-07T15:20:13.565Z,16.38
2023-04-07T15:24:02.089Z,16.44
2023-04-07T15:27:23.659Z,16.47
2023-04-07T15:30:47.984Z,16.46
2023-04-07T15:34:24.048Z,16.44
2023-04-07T15:38:03.765Z,16.39
2023-04-07T15:41:26.023Z,16.36
2023-04-07T15:44:47.618Z,16.28
2023-04-07T15:48:19.702Z,16.23
2023-04-07T15:51:57.848Z,16.21
2023-04-07T15:55:35.957Z,16.12
2023-04-07T15:58:57.619Z,15.96
2023-04-07T16:02:20.894Z,15.84
2023-04-07T16:05:54.308Z,15.74
2023-04-07T16:09:25.015Z,15.70
2023-04-07T16:12:49.744Z,15.72
2023-04-07T16:16:22.210Z,15.68
2023-04-07T16:19:45.744Z,15.58
2023-04-07T16:23:12.729Z,15.44
2023-04-07T16:27:36.113Z,15.31
2023-04-07T16:31:25.970Z,15.16
2023-04-07T16:34:57.854Z,15.10
2023-04-07T16:42:41.185Z,15.13
2023-04-07T16:46:43.066Z,15.21
2023-04-07T16:54:35.142Z,15.09
2023-04-07T16:57:58.252Z,15.00
2023-04-07T17:09:26.432Z,14.60
2023-04-07T17:21:05.557Z,13.90
2023-04-07T17:24:30.245Z,13.80
2023-04-07T17:27:54.981Z,13.74
